KDRO

Durango-La Plata County Airport

Durango, Colorado, USA
METAR KDRO 191053Z AUTO 36005KT 10SM CLR M06/M07 A3009 RMK AO2 SLP205 T10611072
Observed Flight Rules
Dec-19 @ 10:53 UTC (46 minutes ago) Visual Flight Rules
Wind Visibility Clouds
360° at 5 knots 10 miles
  • Clear skies
Temperatures Readings
Current -6°C / 21°F
Dewpoint -7°C / 19°F
Humidity 93%
Altimeter 30.09" Hg
Pressure 1020.5 hPa
Elevation 2035
METAR KDRO 191053Z AUTO 36005KT 10SM CLR M06/M07 A3009 RMK AO2 SLP205 T10611072
Observed Flight Rules
Dec-19 @ 10:53 UTC
(46 minutes ago)
VFR
Wind Visibility
360° at 5 knots 10 miles
Clouds
  • Clear skies
Temperature Dewpoint
-6°C / 21°F -7°C / 19°F
Humidity Altimeter Pressure
93% 30.09" Hg 1020.5 hPa